createdAt,value
2024-01-16T00:02:19.649Z,99583.00
2024-01-16T00:04:46.518Z,99587.00
2024-01-16T00:07:13.438Z,99591.00
2024-01-16T00:09:39.997Z,99583.00
2024-01-16T00:12:07.271Z,99598.00
2024-01-16T00:14:38.193Z,99593.00
2024-01-16T00:17:05.122Z,99615.00
2024-01-16T00:19:31.788Z,99614.00
2024-01-16T00:21:58.734Z,99627.00
2024-01-16T00:24:25.279Z,99646.00
2024-01-16T00:26:52.398Z,99655.00
2024-01-16T00:29:19.083Z,99650.00
2024-01-16T00:31:45.674Z,99653.00
2024-01-16T00:34:12.198Z,99656.00
2024-01-16T00:36:38.771Z,99657.00
2024-01-16T00:39:05.523Z,99656.00
2024-01-16T00:41:32.410Z,99660.00
2024-01-16T00:43:59.074Z,99667.00
2024-01-16T00:46:25.726Z,99690.00
2024-01-16T00:48:52.449Z,99697.00
2024-01-16T00:51:20.749Z,99689.00
2024-01-16T00:53:47.424Z,99696.00
2024-01-16T00:56:14.425Z,99691.00
2024-01-16T00:58:41.411Z,99691.00
2024-01-16T01:01:08.253Z,99697.00
2024-01-16T01:03:35.079Z,99703.00
2024-01-16T01:06:02.485Z,99697.00
2024-01-16T01:08:29.240Z,99691.00
2024-01-16T01:10:56.083Z,99700.00
2024-01-16T01:13:23.295Z,99716.00
2024-01-16T01:15:49.931Z,99705.00
2024-01-16T01:18:16.671Z,99700.00
2024-01-16T01:20:43.340Z,99702.00
2024-01-16T01:23:10.897Z,99708.00
2024-01-16T01:25:39.537Z,99718.00
2024-01-16T01:28:06.448Z,99707.00
2024-01-16T01:30:33.636Z,99711.00
2024-01-16T01:33:03.121Z,99725.00
2024-01-16T01:35:29.794Z,99720.00
2024-01-16T01:37:56.452Z,99717.00
2024-01-16T01:40:22.974Z,99722.00
2024-01-16T01:42:49.633Z,99720.00
2024-01-16T01:45:16.225Z,99719.00
2024-01-16T01:47:46.128Z,99731.00
2024-01-16T01:50:14.725Z,99731.00
2024-01-16T01:52:42.369Z,99728.00
2024-01-16T01:55:13.255Z,99748.00
2024-01-16T01:57:41.023Z,99746.00
2024-01-16T02:00:07.862Z,99750.00
2024-01-16T02:02:34.768Z,99749.00
2024-01-16T02:05:01.793Z,99756.00
2024-01-16T02:07:29.330Z,99750.00
2024-01-16T02:09:56.185Z,99763.00
2024-01-16T02:12:25.687Z,99755.00
2024-01-16T02:14:52.722Z,99765.00
2024-01-16T02:17:19.253Z,99758.00
2024-01-16T02:19:46.059Z,99744.00
2024-01-16T02:22:20.843Z,99738.00
2024-01-16T02:24:48.073Z,99745.00
2024-01-16T02:27:15.186Z,99755.00
2024-01-16T02:29:44.413Z,99767.00
2024-01-16T02:32:15.000Z,99785.00
2024-01-16T02:34:42.590Z,99791.00
2024-01-16T02:37:09.861Z,99785.00
2024-01-16T02:39:36.787Z,99788.00
2024-01-16T02:42:07.033Z,99797.00
2024-01-16T02:44:35.370Z,99804.00
2024-01-16T02:47:02.639Z,99811.00
2024-01-16T02:49:29.605Z,99817.00
2024-01-16T02:51:56.409Z,99826.00
2024-01-16T02:54:23.669Z,99822.00
2024-01-16T02:56:50.443Z,99832.00
2024-01-16T02:59:17.120Z,99836.00
2024-01-16T03:01:44.049Z,99837.00
2024-01-16T03:04:10.723Z,99834.00
2024-01-16T03:06:37.454Z,99845.00
2024-01-16T03:09:04.042Z,99839.00
2024-01-16T03:11:33.713Z,99835.00
2024-01-16T03:14:00.907Z,99833.00
2024-01-16T03:16:27.953Z,99847.00
2024-01-16T03:18:54.513Z,99852.00
2024-01-16T03:21:21.127Z,99863.00
2024-01-16T03:23:48.086Z,99863.00
2024-01-16T03:26:15.148Z,99860.00
2024-01-16T03:28:42.185Z,99866.00
2024-01-16T03:31:08.843Z,99876.00
2024-01-16T03:33:36.186Z,99880.00
2024-01-16T03:36:05.867Z,99868.00
2024-01-16T03:38:32.474Z,99888.00
2024-01-16T03:40:59.010Z,99895.00
2024-01-16T03:43:25.768Z,99900.00
2024-01-16T03:45:52.626Z,99913.00
2024-01-16T03:48:19.545Z,99928.00
2024-01-16T03:50:46.644Z,99931.00
2024-01-16T03:53:14.243Z,99930.00
2024-01-16T03:55:40.921Z,99938.00
2024-01-16T03:58:09.665Z,99951.00
2024-01-16T04:00:37.735Z,99928.00
2024-01-16T04:03:04.747Z,99920.00
2024-01-16T04:05:31.555Z,99921.00
2024-01-16T04:07:58.533Z,99921.00
2024-01-16T04:10:25.203Z,99917.00
2024-01-16T04:12:51.843Z,99934.00
2024-01-16T04:15:20.248Z,99941.00
2024-01-16T04:17:48.375Z,99939.00
2024-01-16T04:20:15.104Z,99938.00
2024-01-16T04:22:41.750Z,99947.00
2024-01-16T04:25:08.315Z,99948.00
2024-01-16T04:27:35.001Z,99954.00
2024-01-16T04:30:04.573Z,99950.00
2024-01-16T04:32:31.393Z,99955.00
2024-01-16T04:34:58.319Z,99949.00
2024-01-16T04:37:25.330Z,99949.00
2024-01-16T04:39:51.939Z,99945.00
2024-01-16T04:42:21.258Z,99943.00
2024-01-16T04:44:47.758Z,99946.00
2024-01-16T04:47:14.358Z,99961.00
2024-01-16T04:49:43.587Z,99948.00
2024-01-16T04:52:10.070Z,99944.00
2024-01-16T04:54:36.611Z,99962.00
2024-01-16T04:57:03.545Z,99957.00
2024-01-16T04:59:31.932Z,99954.00
2024-01-16T05:01:58.920Z,99951.00
2024-01-16T05:04:25.573Z,99947.00
2024-01-16T05:06:52.958Z,99954.00
2024-01-16T05:09:21.335Z,99959.00
2024-01-16T05:11:47.928Z,99962.00
2024-01-16T05:14:14.606Z,99962.00
2024-01-16T05:16:41.325Z,99955.00
2024-01-16T05:19:07.940Z,99974.00
2024-01-16T05:21:34.712Z,99978.00
2024-01-16T05:24:01.334Z,99979.00
2024-01-16T05:26:27.909Z,99978.00
2024-01-16T05:28:55.024Z,99986.00
2024-01-16T05:31:21.765Z,99984.00
2024-01-16T05:33:48.679Z,99977.00
2024-01-16T05:36:15.409Z,99983.00
2024-01-16T05:38:41.961Z,99978.00
2024-01-16T05:41:08.582Z,99988.00
2024-01-16T05:43:35.402Z,99990.00
2024-01-16T05:46:01.984Z,99983.00
2024-01-16T05:48:29.001Z,99999.00
2024-01-16T05:50:55.770Z,99998.00
2024-01-16T05:53:22.432Z,100008.00
2024-01-16T05:55:48.901Z,100011.00
2024-01-16T05:58:15.492Z,100015.00
2024-01-16T06:00:42.296Z,100020.00
2024-01-16T06:03:08.850Z,100009.00
2024-01-16T06:05:35.738Z,100019.00
2024-01-16T06:08:05.759Z,100012.00
2024-01-16T06:10:32.289Z,100020.00
2024-01-16T06:12:58.934Z,100021.00
2024-01-16T06:15:26.248Z,100031.00
2024-01-16T06:17:52.846Z,100017.00
2024-01-16T06:20:19.697Z,100022.00
2024-01-16T06:22:46.433Z,100026.00
2024-01-16T06:25:13.054Z,100033.00
2024-01-16T06:27:39.570Z,100041.00
2024-01-16T06:30:06.604Z,100051.00
2024-01-16T06:32:33.383Z,100053.00
2024-01-16T06:35:00.194Z,100049.00
2024-01-16T06:37:26.777Z,100050.00
2024-01-16T06:39:53.358Z,100052.00
2024-01-16T06:42:20.862Z,100053.00
2024-01-16T06:44:47.456Z,100066.00
2024-01-16T06:47:14.169Z,100064.00
2024-01-16T06:49:40.752Z,100070.00
2024-01-16T06:52:09.046Z,100081.00
2024-01-16T06:54:35.649Z,100078.00
2024-01-16T06:57:02.529Z,100084.00
2024-01-16T06:59:29.344Z,100087.00
2024-01-16T07:01:56.438Z,100093.00
2024-01-16T07:04:23.171Z,100085.00
2024-01-16T07:06:49.924Z,100091.00
2024-01-16T07:09:17.704Z,100097.00
2024-01-16T07:11:44.546Z,100094.00
2024-01-16T07:14:11.709Z,100103.00
2024-01-16T07:16:38.926Z,100106.00
2024-01-16T07:19:05.970Z,100091.00
2024-01-16T07:21:32.632Z,100101.00
2024-01-16T07:23:59.174Z,100095.00
2024-01-16T07:26:26.016Z,100103.00
2024-01-16T07:28:52.693Z,100107.00
2024-01-16T07:31:19.161Z,100115.00
2024-01-16T07:33:45.935Z,100107.00
2024-01-16T07:36:13.079Z,100104.00
2024-01-16T07:38:39.674Z,100099.00
2024-01-16T07:41:06.773Z,100103.00
2024-01-16T07:43:33.973Z,100099.00
2024-01-16T07:46:00.570Z,100106.00
2024-01-16T07:48:27.720Z,100116.00
2024-01-16T07:50:54.788Z,100132.00
2024-01-16T07:53:21.421Z,100119.00
2024-01-16T07:55:47.984Z,100124.00
2024-01-16T07:58:15.167Z,100119.00
2024-01-16T08:00:42.415Z,100125.00
2024-01-16T08:03:13.179Z,100136.00
2024-01-16T08:05:40.065Z,100138.00
2024-01-16T08:08:09.532Z,100148.00
2024-01-16T08:10:36.357Z,100147.00
2024-01-16T08:13:03.161Z,100152.00
2024-01-16T08:15:29.666Z,100155.00
2024-01-16T08:17:56.337Z,100156.00
2024-01-16T08:20:23.058Z,100155.00
2024-01-16T08:22:51.238Z,100155.00
2024-01-16T08:25:17.761Z,100162.00
2024-01-16T08:27:44.861Z,100147.00
2024-01-16T08:30:13.516Z,100148.00
2024-01-16T08:32:40.279Z,100146.00
2024-01-16T08:35:07.243Z,100152.00
2024-01-16T08:37:34.435Z,100148.00
2024-01-16T08:40:00.980Z,100144.00
2024-01-16T08:42:27.944Z,100148.00
2024-01-16T08:44:54.640Z,100169.00
2024-01-16T08:47:21.205Z,100152.00
2024-01-16T08:49:48.356Z,100146.00
2024-01-16T08:52:14.878Z,100149.00
2024-01-16T08:54:41.357Z,100151.00
2024-01-16T08:57:07.937Z,100156.00
2024-01-16T08:59:34.522Z,100152.00
2024-01-16T09:02:01.397Z,100153.00
2024-01-16T09:04:27.937Z,100146.00
2024-01-16T09:06:54.706Z,100148.00
2024-01-16T09:09:22.224Z,100154.00
2024-01-16T09:11:48.751Z,100163.00
2024-01-16T09:14:15.545Z,100162.00
2024-01-16T09:16:42.492Z,100166.00
2024-01-16T09:19:10.530Z,100162.00
2024-01-16T09:21:37.205Z,100164.00
2024-01-16T09:24:04.159Z,100154.00
2024-01-16T09:26:32.994Z,100153.00
2024-01-16T09:28:59.998Z,100159.00
2024-01-16T09:31:26.508Z,100166.00
2024-01-16T09:33:53.156Z,100173.00
2024-01-16T09:36:19.699Z,100171.00
2024-01-16T09:38:46.245Z,100180.00
2024-01-16T09:41:12.886Z,100173.00
2024-01-16T09:43:39.868Z,100171.00
2024-01-16T09:46:08.268Z,100174.00
2024-01-16T09:48:35.296Z,100171.00
2024-01-16T09:51:02.174Z,100175.00
2024-01-16T09:53:28.808Z,100171.00
2024-01-16T09:56:00.274Z,100174.00
2024-01-16T09:58:28.616Z,100171.00
2024-01-16T10:00:55.510Z,100172.00
2024-01-16T10:03:22.626Z,100172.00
2024-01-16T10:05:50.009Z,100172.00
2024-01-16T10:08:16.660Z,100164.00
2024-01-16T10:10:48.769Z,100169.00
2024-01-16T10:13:18.505Z,100166.00
2024-01-16T10:15:45.218Z,100164.00
2024-01-16T10:18:26.255Z,100167.00
2024-01-16T10:20:54.470Z,100161.00
2024-01-16T10:23:28.917Z,100162.00
2024-01-16T10:26:15.249Z,100165.00
2024-01-16T10:28:43.186Z,100160.00
2024-01-16T10:31:17.706Z,100152.00
2024-01-16T10:33:44.887Z,100168.00
2024-01-16T10:36:17.642Z,100171.00
2024-01-16T10:38:46.155Z,100178.00
2024-01-16T10:41:18.565Z,100176.00
2024-01-16T10:43:46.154Z,100173.00
2024-01-16T10:46:14.837Z,100175.00
2024-01-16T10:48:44.398Z,100181.00
2024-01-16T10:51:13.272Z,100179.00
2024-01-16T10:53:43.854Z,100182.00
2024-01-16T10:56:14.807Z,100182.00
2024-01-16T10:58:42.766Z,100176.00
2024-01-16T11:01:16.339Z,100180.00
2024-01-16T11:03:51.139Z,100177.00
2024-01-16T11:06:19.469Z,100179.00
2024-01-16T11:08:50.272Z,100180.00
2024-01-16T11:11:17.800Z,100173.00
2024-01-16T11:13:45.621Z,100175.00
2024-01-16T11:16:12.626Z,100182.00
2024-01-16T11:18:39.625Z,100175.00
2024-01-16T11:21:11.901Z,100173.00
2024-01-16T11:23:41.326Z,100177.00
2024-01-16T11:26:34.937Z,100167.00
2024-01-16T11:29:22.043Z,100174.00
2024-01-16T11:31:48.613Z,100170.00
2024-01-16T11:34:15.320Z,100160.00
2024-01-16T11:36:55.487Z,100155.00
2024-01-16T11:39:24.159Z,100153.00
2024-01-16T11:41:52.665Z,100159.00
2024-01-16T11:44:38.305Z,100159.00
2024-01-16T11:47:05.797Z,100154.00
2024-01-16T11:49:33.143Z,100147.00
2024-01-16T11:52:01.639Z,100153.00
2024-01-16T11:54:28.492Z,100145.00
2024-01-16T11:57:13.766Z,100147.00
2024-01-16T11:59:57.589Z,100142.00
2024-01-16T12:02:48.912Z,100140.00
2024-01-16T12:05:15.606Z,100142.00
2024-01-16T12:07:52.464Z,100142.00
2024-01-16T12:10:21.517Z,100135.00
2024-01-16T12:12:49.418Z,100135.00
2024-01-16T12:15:20.867Z,100143.00
2024-01-16T12:18:01.481Z,100147.00
2024-01-16T12:20:30.817Z,100146.00
2024-01-16T12:23:02.762Z,100139.00
2024-01-16T12:26:00.017Z,100139.00
2024-01-16T12:28:31.185Z,100134.00
2024-01-16T12:31:00.149Z,100135.00
2024-01-16T12:33:27.243Z,100122.00
2024-01-16T12:36:04.419Z,100122.00
2024-01-16T12:38:31.258Z,100117.00
2024-01-16T12:41:00.076Z,100126.00
2024-01-16T12:43:26.688Z,100121.00
2024-01-16T12:45:57.278Z,100115.00
2024-01-16T12:48:26.245Z,100101.00
2024-01-16T12:51:13.398Z,100098.00
2024-01-16T12:53:41.517Z,100094.00
2024-01-16T12:56:12.090Z,100098.00
2024-01-16T12:58:38.870Z,100097.00
2024-01-16T13:01:35.002Z,100098.00
2024-01-16T13:04:07.148Z,100095.00
2024-01-16T13:06:33.928Z,100090.00
2024-01-16T13:09:16.929Z,100103.00
2024-01-16T13:11:52.639Z,100098.00
2024-01-16T13:14:23.691Z,100105.00
2024-01-16T13:16:51.705Z,100097.00
2024-01-16T13:19:22.223Z,100098.00
2024-01-16T13:21:50.504Z,100107.00
2024-01-16T13:24:19.157Z,100109.00
2024-01-16T13:26:46.019Z,100106.00
2024-01-16T13:29:13.199Z,100115.00
2024-01-16T13:31:40.035Z,100124.00
2024-01-16T13:34:13.526Z,100120.00
2024-01-16T13:36:54.386Z,100121.00
2024-01-16T13:39:27.382Z,100119.00
2024-01-16T13:41:55.022Z,100118.00
2024-01-16T13:44:21.703Z,100110.00
2024-01-16T13:46:57.722Z,100117.00
2024-01-16T13:49:34.666Z,100115.00
2024-01-16T13:52:01.652Z,100108.00
2024-01-16T13:54:28.231Z,100120.00
2024-01-16T13:57:03.217Z,100120.00
2024-01-16T13:59:34.480Z,100114.00
2024-01-16T14:02:02.204Z,100113.00
2024-01-16T14:04:28.808Z,100106.00
2024-01-16T14:07:10.155Z,100107.00
2024-01-16T14:09:42.585Z,100105.00
2024-01-16T14:12:10.983Z,100100.00
2024-01-16T14:14:39.808Z,100101.00
2024-01-16T14:17:06.479Z,100099.00
2024-01-16T14:19:35.197Z,100110.00
2024-01-16T14:22:01.825Z,100109.00
2024-01-16T14:24:28.319Z,100105.00
2024-01-16T14:26:54.947Z,100103.00
2024-01-16T14:29:21.554Z,100099.00
2024-01-16T14:31:50.560Z,100111.00
2024-01-16T14:34:19.594Z,100106.00
2024-01-16T14:36:47.193Z,100116.00
2024-01-16T14:39:22.958Z,100111.00
2024-01-16T14:41:49.508Z,100105.00
2024-01-16T14:44:16.059Z,100108.00
2024-01-16T14:46:47.952Z,100113.00
2024-01-16T14:49:17.538Z,100119.00
2024-01-16T14:51:44.355Z,100110.00
2024-01-16T14:54:14.580Z,100117.00
2024-01-16T14:56:41.273Z,100120.00
2024-01-16T14:59:14.111Z,100116.00
2024-01-16T15:01:42.469Z,100118.00
2024-01-16T15:04:09.228Z,100116.00
2024-01-16T15:06:36.062Z,100118.00
2024-01-16T15:09:03.110Z,100114.00
2024-01-16T15:11:29.827Z,100118.00
2024-01-16T15:13:58.641Z,100127.00
2024-01-16T15:16:26.222Z,100121.00
2024-01-16T15:18:53.042Z,100122.00
2024-01-16T15:21:20.066Z,100116.00
2024-01-16T15:23:47.252Z,100128.00
2024-01-16T15:26:20.195Z,100119.00
2024-01-16T15:28:49.179Z,100122.00
2024-01-16T15:31:16.978Z,100138.00
2024-01-16T15:33:43.780Z,100132.00
2024-01-16T15:36:10.438Z,100137.00
2024-01-16T15:38:37.762Z,100145.00
2024-01-16T15:41:04.497Z,100145.00
2024-01-16T15:43:30.965Z,100149.00
2024-01-16T15:45:58.301Z,100149.00
2024-01-16T15:48:25.501Z,100149.00
2024-01-16T15:50:52.259Z,100160.00
2024-01-16T15:53:19.194Z,100152.00
2024-01-16T15:55:45.761Z,100151.00
2024-01-16T15:58:12.582Z,100150.00
2024-01-16T16:00:41.706Z,100157.00
2024-01-16T16:03:08.483Z,100157.00
2024-01-16T16:05:35.499Z,100164.00
2024-01-16T16:08:02.427Z,100157.00
2024-01-16T16:10:29.255Z,100159.00
2024-01-16T16:12:56.011Z,100155.00
2024-01-16T16:15:23.173Z,100153.00
2024-01-16T16:17:50.141Z,100164.00
2024-01-16T16:20:17.074Z,100159.00
2024-01-16T16:22:45.371Z,100159.00
2024-01-16T16:25:13.460Z,100160.00
2024-01-16T16:27:40.111Z,100166.00
2024-01-16T16:30:07.254Z,100162.00
2024-01-16T16:32:33.986Z,100171.00
2024-01-16T16:35:00.617Z,100174.00
2024-01-16T16:37:27.347Z,100177.00
2024-01-16T16:39:54.197Z,100174.00
2024-01-16T16:42:23.708Z,100181.00
2024-01-16T16:44:50.398Z,100173.00
2024-01-16T16:47:18.171Z,100171.00
2024-01-16T16:49:45.122Z,100179.00
2024-01-16T16:52:11.641Z,100184.00
2024-01-16T16:54:38.196Z,100176.00
2024-01-16T16:57:04.846Z,100180.00
2024-01-16T16:59:31.432Z,100182.00
2024-01-16T17:01:59.535Z,100191.00
2024-01-16T17:04:27.462Z,100186.00
2024-01-16T17:06:56.592Z,100196.00
2024-01-16T17:09:23.800Z,100191.00
2024-01-16T17:11:50.805Z,100188.00
2024-01-16T17:14:17.762Z,100191.00
2024-01-16T17:16:44.819Z,100186.00
2024-01-16T17:19:12.432Z,100187.00
2024-01-16T17:21:40.187Z,100196.00
2024-01-16T17:24:07.414Z,100186.00
2024-01-16T17:26:35.639Z,100178.00
2024-01-16T17:29:02.433Z,100178.00
2024-01-16T17:31:30.194Z,100175.00
2024-01-16T17:33:58.587Z,100182.00
2024-01-16T17:36:25.542Z,100171.00
2024-01-16T17:38:57.368Z,100176.00
2024-01-16T17:41:27.528Z,100187.00
2024-01-16T17:43:55.290Z,100183.00
2024-01-16T17:46:22.436Z,100184.00
2024-01-16T17:48:50.292Z,100184.00
2024-01-16T17:51:17.247Z,100183.00
2024-01-16T17:53:44.771Z,100182.00
2024-01-16T17:56:16.469Z,100173.00
2024-01-16T17:58:44.096Z,100179.00
2024-01-16T18:01:12.847Z,100182.00
2024-01-16T18:03:45.146Z,100187.00
2024-01-16T18:06:17.616Z,100184.00
2024-01-16T18:08:44.878Z,100190.00
2024-01-16T18:11:13.769Z,100197.00
2024-01-16T18:13:40.783Z,100200.00
2024-01-16T18:16:08.358Z,100204.00
2024-01-16T18:18:35.276Z,100191.00
2024-01-16T18:21:02.145Z,100197.00
2024-01-16T18:23:29.291Z,100203.00
2024-01-16T18:25:58.768Z,100193.00
2024-01-16T18:28:27.275Z,100199.00
2024-01-16T18:30:54.009Z,100199.00
2024-01-16T18:33:20.810Z,100203.00
2024-01-16T18:35:47.905Z,100200.00
2024-01-16T18:38:20.553Z,100199.00
2024-01-16T18:40:47.776Z,100205.00
2024-01-16T18:43:16.190Z,100202.00
2024-01-16T18:45:43.000Z,100196.00
2024-01-16T18:48:10.031Z,100199.00
2024-01-16T18:50:36.671Z,100204.00
2024-01-16T18:53:03.365Z,100206.00
2024-01-16T18:55:30.134Z,100211.00
2024-01-16T18:58:03.016Z,100212.00
2024-01-16T19:00:29.665Z,100221.00
2024-01-16T19:02:57.130Z,100211.00
2024-01-16T19:05:24.148Z,100213.00
2024-01-16T19:07:51.202Z,100208.00
2024-01-16T19:10:18.039Z,100211.00
2024-01-16T19:12:48.569Z,100213.00
2024-01-16T19:15:19.144Z,100210.00
2024-01-16T19:17:49.894Z,100213.00
2024-01-16T19:20:22.891Z,100215.00
2024-01-16T19:22:50.845Z,100211.00
2024-01-16T19:25:17.658Z,100213.00
2024-01-16T19:27:49.161Z,100215.00
2024-01-16T19:30:20.145Z,100217.00
2024-01-16T19:32:48.122Z,100215.00
2024-01-16T19:35:16.046Z,100217.00
2024-01-16T19:37:42.743Z,100216.00
2024-01-16T19:40:17.852Z,100218.00
2024-01-16T19:42:44.587Z,100225.00
2024-01-16T19:45:12.698Z,100213.00
2024-01-16T19:47:41.644Z,100213.00
2024-01-16T19:50:20.708Z,100210.00
2024-01-16T19:52:52.650Z,100204.00
2024-01-16T19:55:22.489Z,100204.00
2024-01-16T19:57:49.261Z,100199.00
2024-01-16T20:00:18.875Z,100201.00
2024-01-16T20:02:45.967Z,100203.00
2024-01-16T20:05:19.777Z,100198.00
2024-01-16T20:07:47.284Z,100201.00
2024-01-16T20:10:15.228Z,100208.00
2024-01-16T20:12:46.243Z,100211.00
2024-01-16T20:15:14.615Z,100208.00
2024-01-16T20:17:45.433Z,100212.00
2024-01-16T20:20:14.566Z,100211.00
2024-01-16T20:22:42.373Z,100212.00
2024-01-16T20:25:13.956Z,100217.00
2024-01-16T20:27:41.241Z,100221.00
2024-01-16T20:30:09.803Z,100219.00
2024-01-16T20:32:40.477Z,100204.00
2024-01-16T20:35:08.733Z,100209.00
2024-01-16T20:37:35.576Z,100199.00
2024-01-16T20:40:02.592Z,100204.00
2024-01-16T20:42:29.169Z,100209.00
2024-01-16T20:44:55.867Z,100204.00
2024-01-16T20:47:22.690Z,100199.00
2024-01-16T20:49:49.469Z,100204.00
2024-01-16T20:52:19.756Z,100207.00
2024-01-16T20:54:46.289Z,100207.00
2024-01-16T20:57:12.771Z,100199.00
2024-01-16T20:59:40.408Z,100197.00
2024-01-16T21:02:07.871Z,100202.00
2024-01-16T21:04:34.896Z,100206.00
2024-01-16T21:07:05.722Z,100210.00
2024-01-16T21:09:32.606Z,100209.00
2024-01-16T21:12:02.092Z,100210.00
2024-01-16T21:14:30.860Z,100201.00
2024-01-16T21:16:58.229Z,100201.00
2024-01-16T21:19:25.054Z,100195.00
2024-01-16T21:21:52.258Z,100194.00
2024-01-16T21:24:20.189Z,100193.00
2024-01-16T21:26:47.597Z,100189.00
2024-01-16T21:29:14.236Z,100184.00
2024-01-16T21:31:49.075Z,100187.00
2024-01-16T21:34:17.870Z,100175.00
2024-01-16T21:36:48.247Z,100174.00
2024-01-16T21:39:15.882Z,100177.00
2024-01-16T21:41:44.245Z,100177.00
2024-01-16T21:44:12.010Z,100168.00
2024-01-16T21:46:39.967Z,100178.00
2024-01-16T21:49:06.640Z,100176.00
2024-01-16T21:51:33.753Z,100168.00
2024-01-16T21:54:02.697Z,100173.00
2024-01-16T21:56:29.587Z,100172.00
2024-01-16T21:58:57.821Z,100165.00
2024-01-16T22:01:24.664Z,100166.00
2024-01-16T22:03:51.511Z,100167.00
2024-01-16T22:06:24.345Z,100169.00
2024-01-16T22:08:52.083Z,100162.00
2024-01-16T22:11:19.146Z,100165.00
2024-01-16T22:13:46.672Z,100157.00
2024-01-16T22:16:13.647Z,100158.00
2024-01-16T22:18:42.300Z,100154.00
2024-01-16T22:21:10.681Z,100155.00
2024-01-16T22:23:37.245Z,100154.00
2024-01-16T22:26:04.618Z,100147.00
2024-01-16T22:28:31.597Z,100138.00
2024-01-16T22:30:58.486Z,100144.00
2024-01-16T22:33:25.510Z,100144.00
2024-01-16T22:35:53.233Z,100134.00
2024-01-16T22:38:19.892Z,100131.00
2024-01-16T22:40:46.733Z,100133.00
2024-01-16T22:43:13.494Z,100131.00
2024-01-16T22:45:40.596Z,100128.00
2024-01-16T22:48:11.953Z,100113.00
2024-01-16T22:50:43.301Z,100109.00
2024-01-16T22:53:10.037Z,100115.00
2024-01-16T22:55:36.707Z,100107.00
2024-01-16T22:58:06.416Z,100096.00
2024-01-16T23:00:40.266Z,100093.00
2024-01-16T23:03:12.881Z,100103.00
2024-01-16T23:05:40.417Z,100096.00
2024-01-16T23:08:11.732Z,100096.00
2024-01-16T23:10:38.870Z,100089.00
2024-01-16T23:13:05.498Z,100085.00
2024-01-16T23:15:32.317Z,100081.00
2024-01-16T23:17:59.036Z,100077.00
2024-01-16T23:20:28.781Z,100073.00
2024-01-16T23:22:56.824Z,100062.00
2024-01-16T23:25:23.764Z,100059.00
2024-01-16T23:27:50.788Z,100059.00
2024-01-16T23:30:19.398Z,100050.00
2024-01-16T23:32:46.439Z,100051.00
2024-01-16T23:35:13.179Z,100034.00
2024-01-16T23:37:41.721Z,100036.00
2024-01-16T23:40:10.610Z,100041.00
2024-01-16T23:42:39.364Z,100042.00
2024-01-16T23:45:14.424Z,100034.00
2024-01-16T23:47:50.342Z,100036.00
2024-01-16T23:50:18.813Z,100021.00
2024-01-16T23:52:45.836Z,100018.00
2024-01-16T23:55:16.261Z,100019.00
2024-01-16T23:57:42.803Z,100013.00
